sensor_id;sensor_type;location;lat;lon;timestamp;P1;durP1;ratioP1;P2;durP2;ratioP2
20772;SDS011;10546;50.674;4.616;2023-03-25T07:46:08;13.57;;;3.37;;
20772;SDS011;10546;50.674;4.616;2023-03-25T07:48:34;14.50;;;2.80;;
20772;SDS011;10546;50.674;4.616;2023-03-25T07:51:00;20.20;;;3.40;;
20772;SDS011;10546;50.674;4.616;2023-03-25T07:53:27;19.47;;;3.17;;
20772;SDS011;10546;50.674;4.616;2023-03-25T07:55:53;15.07;;;3.10;;
20772;SDS011;10546;50.674;4.616;2023-03-25T07:58:18;18.53;;;3.10;;
20772;SDS011;10546;50.674;4.616;2023-03-25T08:00:44;17.30;;;3.13;;
20772;SDS011;10546;50.674;4.616;2023-03-25T08:03:11;11.17;;;2.73;;
20772;SDS011;10546;50.674;4.616;2023-03-25T08:05:38;20.83;;;3.47;;
20772;SDS011;10546;50.674;4.616;2023-03-25T08:08:11;20.13;;;3.33;;
20772;SDS011;10546;50.674;4.616;2023-03-25T08:10:37;22.67;;;3.70;;
20772;SDS011;10546;50.674;4.616;2023-03-25T08:13:02;17.80;;;4.40;;
20772;SDS011;10546;50.674;4.616;2023-03-25T08:15:28;15.67;;;3.50;;
20772;SDS011;10546;50.674;4.616;2023-03-25T08:17:54;10.97;;;3.33;;
20772;SDS011;10546;50.674;4.616;2023-03-25T08:20:20;21.40;;;3.10;;
20772;SDS011;10546;50.674;4.616;2023-03-25T08:22:46;16.87;;;3.70;;
20772;SDS011;10546;50.674;4.616;2023-03-25T08:25:12;19.00;;;3.00;;
20772;SDS011;10546;50.674;4.616;2023-03-25T08:27:38;19.00;;;3.40;;
20772;SDS011;10546;50.674;4.616;2023-03-25T08:30:04;18.07;;;3.00;;
20772;SDS011;10546;50.674;4.616;2023-03-25T08:32:33;15.50;;;2.97;;
20772;SDS011;10546;50.674;4.616;2023-03-25T08:35:00;16.93;;;3.23;;
20772;SDS011;10546;50.674;4.616;2023-03-25T08:37:29;14.43;;;2.70;;
20772;SDS011;10546;50.674;4.616;2023-03-25T08:39:59;13.73;;;3.00;;
20772;SDS011;10546;50.674;4.616;2023-03-25T08:42:34;14.83;;;3.00;;
20772;SDS011;10546;50.674;4.616;2023-03-25T08:45:00;13.80;;;3.20;;
20772;SDS011;10546;50.674;4.616;2023-03-25T08:47:26;12.47;;;2.90;;
20772;SDS011;10546;50.674;4.616;2023-03-25T08:49:52;12.53;;;2.40;;
20772;SDS011;10546;50.674;4.616;2023-03-25T08:52:18;18.13;;;3.60;;
20772;SDS011;10546;50.674;4.616;2023-03-25T08:54:43;16.47;;;3.87;;
20772;SDS011;10546;50.674;4.616;2023-03-25T08:57:09;24.43;;;2.97;;
20772;SDS011;10546;50.674;4.616;2023-03-25T08:59:35;21.37;;;3.63;;
20772;SDS011;10546;50.674;4.616;2023-03-25T09:02:00;15.40;;;3.10;;
20772;SDS011;10546;50.674;4.616;2023-03-25T09:04:26;12.73;;;2.83;;
20772;SDS011;10546;50.674;4.616;2023-03-25T09:06:51;16.90;;;2.47;;
20772;SDS011;10546;50.674;4.616;2023-03-25T09:09:17;14.57;;;2.93;;
20772;SDS011;10546;50.674;4.616;2023-03-25T09:11:43;16.93;;;3.00;;
20772;SDS011;10546;50.674;4.616;2023-03-25T09:14:09;14.23;;;3.10;;
20772;SDS011;10546;50.674;4.616;2023-03-25T09:20:06;19.40;;;3.10;;
20772;SDS011;10546;50.674;4.616;2023-03-25T09:22:39;10.20;;;2.63;;
20772;SDS011;10546;50.674;4.616;2023-03-25T09:25:07;15.60;;;3.67;;
20772;SDS011;10546;50.674;4.616;2023-03-25T09:27:36;17.00;;;3.27;;
20772;SDS011;10546;50.674;4.616;2023-03-25T09:30:03;13.10;;;2.97;;
20772;SDS011;10546;50.674;4.616;2023-03-25T09:32:30;14.87;;;4.63;;
20772;SDS011;10546;50.674;4.616;2023-03-25T09:34:56;15.90;;;3.17;;
20772;SDS011;10546;50.674;4.616;2023-03-25T09:37:21;12.57;;;2.13;;
20772;SDS011;10546;50.674;4.616;2023-03-25T09:39:47;16.50;;;3.00;;
20772;SDS011;10546;50.674;4.616;2023-03-25T09:42:21;16.13;;;2.53;;
20772;SDS011;10546;50.674;4.616;2023-03-25T09:45:16;12.30;;;2.83;;
20772;SDS011;10546;50.674;4.616;2023-03-25T09:50:48;11.67;;;3.23;;
20772;SDS011;10546;50.674;4.616;2023-03-25T09:55:54;13.73;;;3.17;;
20772;SDS011;10546;50.674;4.616;2023-03-25T10:00:46;15.20;;;2.70;;
20772;SDS011;10546;50.674;4.616;2023-03-25T10:03:18;14.03;;;3.27;;
20772;SDS011;10546;50.674;4.616;2023-03-25T10:06:15;15.97;;;3.13;;
20772;SDS011;10546;50.674;4.616;2023-03-25T10:08:47;12.50;;;3.20;;
20772;SDS011;10546;50.674;4.616;2023-03-25T10:14:02;17.10;;;3.27;;
20772;SDS011;10546;50.674;4.616;2023-03-25T10:16:41;16.77;;;3.40;;
20772;SDS011;10546;50.674;4.616;2023-03-25T10:24:39;11.50;;;2.67;;
20772;SDS011;10546;50.674;4.616;2023-03-25T10:29:56;9.65;;;2.70;;
20772;SDS011;10546;50.674;4.616;2023-03-25T10:32:43;13.20;;;2.92;;
20772;SDS011;10546;50.674;4.616;2023-03-25T10:35:24;11.07;;;2.73;;
20772;SDS011;10546;50.674;4.616;2023-03-25T10:38:05;11.73;;;2.42;;
20772;SDS011;10546;50.674;4.616;2023-03-25T10:40:48;11.63;;;2.40;;
20772;SDS011;10546;50.674;4.616;2023-03-25T10:45:58;11.75;;;2.63;;
20772;SDS011;10546;50.674;4.616;2023-03-25T10:48:28;13.82;;;2.67;;
20772;SDS011;10546;50.674;4.616;2023-03-25T10:51:03;13.73;;;2.70;;
20772;SDS011;10546;50.674;4.616;2023-03-25T10:53:33;13.10;;;2.37;;
20772;SDS011;10546;50.674;4.616;2023-03-25T10:56:03;11.27;;;2.33;;
20772;SDS011;10546;50.674;4.616;2023-03-25T10:58:33;16.10;;;3.33;;
20772;SDS011;10546;50.674;4.616;2023-03-25T11:01:02;16.17;;;3.40;;
20772;SDS011;10546;50.674;4.616;2023-03-25T11:03:38;21.33;;;2.70;;
20772;SDS011;10546;50.674;4.616;2023-03-25T11:06:06;9.47;;;2.40;;
20772;SDS011;10546;50.674;4.616;2023-03-25T11:08:37;12.63;;;2.47;;
20772;SDS011;10546;50.674;4.616;2023-03-25T11:11:43;9.37;;;2.27;;
20772;SDS011;10546;50.674;4.616;2023-03-25T11:14:10;17.03;;;2.47;;
20772;SDS011;10546;50.674;4.616;2023-03-25T11:16:47;11.60;;;2.23;;
20772;SDS011;10546;50.674;4.616;2023-03-25T11:19:20;9.93;;;2.70;;
20772;SDS011;10546;50.674;4.616;2023-03-25T11:21:56;13.10;;;2.63;;
20772;SDS011;10546;50.674;4.616;2023-03-25T11:24:27;10.00;;;2.67;;
20772;SDS011;10546;50.674;4.616;2023-03-25T11:26:56;11.97;;;2.70;;
20772;SDS011;10546;50.674;4.616;2023-03-25T11:29:23;10.63;;;2.40;;
20772;SDS011;10546;50.674;4.616;2023-03-25T11:31:56;15.33;;;2.60;;
20772;SDS011;10546;50.674;4.616;2023-03-25T11:34:28;11.00;;;2.30;;
20772;SDS011;10546;50.674;4.616;2023-03-25T11:37:01;13.07;;;2.93;;
20772;SDS011;10546;50.674;4.616;2023-03-25T11:42:50;15.93;;;2.67;;
20772;SDS011;10546;50.674;4.616;2023-03-25T11:44:57;12.47;;;2.40;;
20772;SDS011;10546;50.674;4.616;2023-03-25T11:47:25;13.00;;;2.70;;
20772;SDS011;10546;50.674;4.616;2023-03-25T11:49:55;13.37;;;2.83;;
20772;SDS011;10546;50.674;4.616;2023-03-25T11:52:23;12.83;;;2.60;;
20772;SDS011;10546;50.674;4.616;2023-03-25T11:54:55;9.40;;;1.90;;
20772;SDS011;10546;50.674;4.616;2023-03-25T11:57:33;11.33;;;2.37;;
20772;SDS011;10546;50.674;4.616;2023-03-25T12:00:04;12.07;;;2.43;;
20772;SDS011;10546;50.674;4.616;2023-03-25T12:02:43;16.70;;;2.63;;
20772;SDS011;10546;50.674;4.616;2023-03-25T12:05:13;12.30;;;3.13;;
20772;SDS011;10546;50.674;4.616;2023-03-25T12:07:47;15.23;;;2.50;;
20772;SDS011;10546;50.674;4.616;2023-03-25T12:12:52;16.40;;;3.23;;
20772;SDS011;10546;50.674;4.616;2023-03-25T12:23:36;12.30;;;2.30;;
20772;SDS011;10546;50.674;4.616;2023-03-25T12:29:02;14.17;;;1.90;;
20772;SDS011;10546;50.674;4.616;2023-03-25T12:36:51;15.67;;;2.10;;
20772;SDS011;10546;50.674;4.616;2023-03-25T12:39:47;11.33;;;3.00;;
20772;SDS011;10546;50.674;4.616;2023-03-25T13:07:19;12.17;;;2.80;;
20772;SDS011;10546;50.674;4.616;2023-03-25T13:09:53;14.50;;;2.40;;
20772;SDS011;10546;50.674;4.616;2023-03-25T13:17:56;9.97;;;2.20;;
20772;SDS011;10546;50.674;4.616;2023-03-25T13:20:45;9.40;;;2.57;;
20772;SDS011;10546;50.674;4.616;2023-03-25T13:23:16;8.63;;;2.30;;
20772;SDS011;10546;50.674;4.616;2023-03-25T13:25:53;11.17;;;2.50;;
20772;SDS011;10546;50.674;4.616;2023-03-25T13:28:29;14.90;;;2.27;;
20772;SDS011;10546;50.674;4.616;2023-03-25T13:31:02;15.87;;;2.33;;
20772;SDS011;10546;50.674;4.616;2023-03-25T13:33:37;12.60;;;2.30;;
20772;SDS011;10546;50.674;4.616;2023-03-25T13:36:08;9.77;;;2.00;;
20772;SDS011;10546;50.674;4.616;2023-03-25T13:38:50;11.23;;;1.97;;
20772;SDS011;10546;50.674;4.616;2023-03-25T13:44:07;11.17;;;1.93;;
20772;SDS011;10546;50.674;4.616;2023-03-25T13:46:52;16.83;;;2.50;;
20772;SDS011;10546;50.674;4.616;2023-03-25T13:49:33;13.87;;;2.57;;
20772;SDS011;10546;50.674;4.616;2023-03-25T13:52:06;13.00;;;2.23;;
20772;SDS011;10546;50.674;4.616;2023-03-25T13:54:36;11.57;;;2.37;;
20772;SDS011;10546;50.674;4.616;2023-03-25T13:57:17;12.57;;;1.80;;
20772;SDS011;10546;50.674;4.616;2023-03-25T14:13:21;12.77;;;2.60;;
20772;SDS011;10546;50.674;4.616;2023-03-25T14:15:54;20.33;;;2.50;;
20772;SDS011;10546;50.674;4.616;2023-03-25T14:18:27;21.03;;;3.00;;
20772;SDS011;10546;50.674;4.616;2023-03-25T14:20:55;12.20;;;2.00;;
20772;SDS011;10546;50.674;4.616;2023-03-25T14:23:41;13.40;;;2.30;;
20772;SDS011;10546;50.674;4.616;2023-03-25T14:26:07;9.93;;;2.37;;
20772;SDS011;10546;50.674;4.616;2023-03-25T14:28:38;9.87;;;2.33;;
20772;SDS011;10546;50.674;4.616;2023-03-25T14:31:06;12.27;;;1.73;;
20772;SDS011;10546;50.674;4.616;2023-03-25T14:42:02;13.30;;;2.27;;
20772;SDS011;10546;50.674;4.616;2023-03-25T14:44:32;10.10;;;2.00;;
20772;SDS011;10546;50.674;4.616;2023-03-25T14:52:14;12.47;;;2.20;;
20772;SDS011;10546;50.674;4.616;2023-03-25T14:54:42;12.13;;;2.23;;
20772;SDS011;10546;50.674;4.616;2023-03-25T14:57:17;12.57;;;2.30;;
20772;SDS011;10546;50.674;4.616;2023-03-25T14:59:48;11.10;;;1.50;;
20772;SDS011;10546;50.674;4.616;2023-03-25T15:02:26;15.30;;;2.50;;
20772;SDS011;10546;50.674;4.616;2023-03-25T15:04:58;11.00;;;1.50;;
20772;SDS011;10546;50.674;4.616;2023-03-25T15:10:32;13.53;;;2.00;;
20772;SDS011;10546;50.674;4.616;2023-03-25T15:13:19;8.37;;;1.60;;
20772;SDS011;10546;50.674;4.616;2023-03-25T15:23:46;9.70;;;1.90;;
20772;SDS011;10546;50.674;4.616;2023-03-25T15:26:20;9.63;;;1.53;;
20772;SDS011;10546;50.674;4.616;2023-03-25T15:29:10;9.27;;;2.03;;
20772;SDS011;10546;50.674;4.616;2023-03-25T15:37:23;9.77;;;2.10;;
20772;SDS011;10546;50.674;4.616;2023-03-25T15:40:19;8.50;;;1.80;;
20772;SDS011;10546;50.674;4.616;2023-03-25T15:42:59;6.83;;;1.43;;
20772;SDS011;10546;50.674;4.616;2023-03-25T15:46:01;7.47;;;1.50;;
20772;SDS011;10546;50.674;4.616;2023-03-25T15:51:43;7.33;;;1.93;;
20772;SDS011;10546;50.674;4.616;2023-03-25T15:57:18;14.43;;;2.23;;
20772;SDS011;10546;50.674;4.616;2023-03-25T16:05:22;9.67;;;2.20;;
20772;SDS011;10546;50.674;4.616;2023-03-25T16:07:48;11.67;;;2.23;;
20772;SDS011;10546;50.674;4.616;2023-03-25T16:10:16;12.07;;;1.97;;
20772;SDS011;10546;50.674;4.616;2023-03-25T16:12:56;9.17;;;2.10;;
20772;SDS011;10546;50.674;4.616;2023-03-25T16:15:27;14.33;;;2.80;;
20772;SDS011;10546;50.674;4.616;2023-03-25T16:17:55;15.00;;;2.30;;
20772;SDS011;10546;50.674;4.616;2023-03-25T16:20:22;10.40;;;2.17;;
20772;SDS011;10546;50.674;4.616;2023-03-25T16:22:51;17.30;;;1.93;;
20772;SDS011;10546;50.674;4.616;2023-03-25T16:25:24;19.87;;;3.00;;
20772;SDS011;10546;50.674;4.616;2023-03-25T16:27:57;12.77;;;1.87;;
20772;SDS011;10546;50.674;4.616;2023-03-25T16:30:32;9.23;;;2.60;;
20772;SDS011;10546;50.674;4.616;2023-03-25T16:35:36;9.20;;;1.90;;
20772;SDS011;10546;50.674;4.616;2023-03-25T16:38:04;13.77;;;2.97;;
20772;SDS011;10546;50.674;4.616;2023-03-25T16:40:37;14.43;;;2.67;;
20772;SDS011;10546;50.674;4.616;2023-03-25T16:45:39;12.73;;;4.07;;
20772;SDS011;10546;50.674;4.616;2023-03-25T16:48:06;17.23;;;3.80;;
20772;SDS011;10546;50.674;4.616;2023-03-25T16:50:37;15.47;;;3.20;;
20772;SDS011;10546;50.674;4.616;2023-03-25T16:53:03;19.67;;;5.30;;
20772;SDS011;10546;50.674;4.616;2023-03-25T16:55:49;16.17;;;3.20;;
20772;SDS011;10546;50.674;4.616;2023-03-25T16:58:21;17.30;;;3.37;;
20772;SDS011;10546;50.674;4.616;2023-03-25T17:00:49;22.40;;;3.63;;
20772;SDS011;10546;50.674;4.616;2023-03-25T17:03:17;18.87;;;3.03;;
20772;SDS011;10546;50.674;4.616;2023-03-25T17:06:02;20.10;;;3.97;;
20772;SDS011;10546;50.674;4.616;2023-03-25T17:08:34;19.83;;;3.27;;
20772;SDS011;10546;50.674;4.616;2023-03-25T17:11:00;14.93;;;3.10;;
20772;SDS011;10546;50.674;4.616;2023-03-25T17:15:54;15.87;;;2.57;;
20772;SDS011;10546;50.674;4.616;2023-03-25T17:18:21;18.27;;;3.00;;
20772;SDS011;10546;50.674;4.616;2023-03-25T17:20:50;16.53;;;3.37;;
20772;SDS011;10546;50.674;4.616;2023-03-25T17:26:08;15.97;;;3.67;;
20772;SDS011;10546;50.674;4.616;2023-03-25T17:28:37;14.10;;;3.47;;
20772;SDS011;10546;50.674;4.616;2023-03-25T17:36:35;17.87;;;3.20;;
20772;SDS011;10546;50.674;4.616;2023-03-25T17:39:05;18.60;;;2.97;;
20772;SDS011;10546;50.674;4.616;2023-03-25T17:41:40;14.47;;;2.97;;
20772;SDS011;10546;50.674;4.616;2023-03-25T17:44:05;15.80;;;2.87;;
20772;SDS011;10546;50.674;4.616;2023-03-25T17:46:32;14.27;;;2.90;;
20772;SDS011;10546;50.674;4.616;2023-03-25T17:48:59;16.43;;;2.67;;
20772;SDS011;10546;50.674;4.616;2023-03-25T17:51:26;11.23;;;2.23;;
20772;SDS011;10546;50.674;4.616;2023-03-25T17:53:54;20.23;;;2.93;;
20772;SDS011;10546;50.674;4.616;2023-03-25T17:56:21;13.93;;;2.60;;
20772;SDS011;10546;50.674;4.616;2023-03-25T17:58:57;21.03;;;3.77;;
20772;SDS011;10546;50.674;4.616;2023-03-25T18:01:23;21.63;;;3.20;;
20772;SDS011;10546;50.674;4.616;2023-03-25T18:03:51;21.10;;;3.37;;
20772;SDS011;10546;50.674;4.616;2023-03-25T18:06:17;15.20;;;3.10;;
20772;SDS011;10546;50.674;4.616;2023-03-25T18:08:42;23.47;;;3.33;;
20772;SDS011;10546;50.674;4.616;2023-03-25T18:11:09;20.23;;;3.10;;
20772;SDS011;10546;50.674;4.616;2023-03-25T18:13:35;16.37;;;2.87;;
20772;SDS011;10546;50.674;4.616;2023-03-25T18:16:02;17.77;;;2.90;;
20772;SDS011;10546;50.674;4.616;2023-03-25T18:18:29;21.70;;;3.30;;
20772;SDS011;10546;50.674;4.616;2023-03-25T18:20:55;18.30;;;2.73;;
20772;SDS011;10546;50.674;4.616;2023-03-25T18:23:23;18.13;;;3.33;;
20772;SDS011;10546;50.674;4.616;2023-03-25T18:25:50;18.30;;;2.63;;
20772;SDS011;10546;50.674;4.616;2023-03-25T18:28:16;12.70;;;3.10;;
20772;SDS011;10546;50.674;4.616;2023-03-25T18:30:48;17.00;;;3.13;;
20772;SDS011;10546;50.674;4.616;2023-03-25T18:33:17;18.10;;;3.30;;
20772;SDS011;10546;50.674;4.616;2023-03-25T18:35:43;19.47;;;3.50;;
20772;SDS011;10546;50.674;4.616;2023-03-25T18:38:19;23.17;;;3.93;;
20772;SDS011;10546;50.674;4.616;2023-03-25T18:40:47;22.70;;;4.37;;
20772;SDS011;10546;50.674;4.616;2023-03-25T18:43:13;15.73;;;3.87;;
20772;SDS011;10546;50.674;4.616;2023-03-25T18:45:39;20.30;;;5.07;;
20772;SDS011;10546;50.674;4.616;2023-03-25T18:48:05;21.73;;;3.53;;
20772;SDS011;10546;50.674;4.616;2023-03-25T18:50:36;21.57;;;3.10;;
20772;SDS011;10546;50.674;4.616;2023-03-25T18:53:03;20.63;;;3.90;;
20772;SDS011;10546;50.674;4.616;2023-03-25T18:55:30;20.70;;;3.50;;
20772;SDS011;10546;50.674;4.616;2023-03-25T18:57:58;23.10;;;4.23;;
20772;SDS011;10546;50.674;4.616;2023-03-25T19:00:25;21.50;;;3.87;;
20772;SDS011;10546;50.674;4.616;2023-03-25T19:02:53;17.10;;;3.60;;
20772;SDS011;10546;50.674;4.616;2023-03-25T19:05:20;16.80;;;3.57;;
20772;SDS011;10546;50.674;4.616;2023-03-25T19:07:47;21.80;;;4.40;;
20772;SDS011;10546;50.674;4.616;2023-03-25T19:10:29;27.00;;;4.67;;
20772;SDS011;10546;50.674;4.616;2023-03-25T19:12:56;13.80;;;3.73;;
20772;SDS011;10546;50.674;4.616;2023-03-25T19:15:23;25.87;;;3.50;;
20772;SDS011;10546;50.674;4.616;2023-03-25T19:17:51;20.33;;;3.70;;
20772;SDS011;10546;50.674;4.616;2023-03-25T19:20:20;19.37;;;3.73;;
20772;SDS011;10546;50.674;4.616;2023-03-25T19:22:48;19.77;;;3.03;;
20772;SDS011;10546;50.674;4.616;2023-03-25T19:25:15;17.50;;;3.17;;
20772;SDS011;10546;50.674;4.616;2023-03-25T19:27:42;26.30;;;3.80;;
20772;SDS011;10546;50.674;4.616;2023-03-25T19:30:09;18.13;;;3.53;;
20772;SDS011;10546;50.674;4.616;2023-03-25T19:32:37;24.50;;;3.40;;
20772;SDS011;10546;50.674;4.616;2023-03-25T19:35:03;21.23;;;4.03;;
20772;SDS011;10546;50.674;4.616;2023-03-25T19:37:29;24.27;;;3.33;;
20772;SDS011;10546;50.674;4.616;2023-03-25T19:39:59;23.93;;;3.80;;
20772;SDS011;10546;50.674;4.616;2023-03-25T19:42:33;18.30;;;3.07;;
20772;SDS011;10546;50.674;4.616;2023-03-25T19:44:59;22.67;;;3.60;;
20772;SDS011;10546;50.674;4.616;2023-03-25T19:47:26;27.57;;;4.73;;
20772;SDS011;10546;50.674;4.616;2023-03-25T19:49:51;20.80;;;5.47;;
20772;SDS011;10546;50.674;4.616;2023-03-25T19:52:17;23.43;;;6.57;;
20772;SDS011;10546;50.674;4.616;2023-03-25T19:54:44;24.70;;;6.33;;
20772;SDS011;10546;50.674;4.616;2023-03-25T19:57:10;20.77;;;4.17;;
20772;SDS011;10546;50.674;4.616;2023-03-25T19:59:36;22.70;;;4.47;;
20772;SDS011;10546;50.674;4.616;2023-03-25T20:02:02;26.73;;;3.80;;
20772;SDS011;10546;50.674;4.616;2023-03-25T20:04:28;22.23;;;3.80;;
20772;SDS011;10546;50.674;4.616;2023-03-25T20:06:54;19.67;;;3.87;;
20772;SDS011;10546;50.674;4.616;2023-03-25T20:09:19;21.57;;;3.57;;
20772;SDS011;10546;50.674;4.616;2023-03-25T20:11:45;15.37;;;3.43;;
20772;SDS011;10546;50.674;4.616;2023-03-25T20:14:11;22.10;;;4.10;;
20772;SDS011;10546;50.674;4.616;2023-03-25T20:16:37;22.80;;;3.70;;
20772;SDS011;10546;50.674;4.616;2023-03-25T20:19:03;20.07;;;3.37;;
20772;SDS011;10546;50.674;4.616;2023-03-25T20:21:28;22.33;;;2.90;;
20772;SDS011;10546;50.674;4.616;2023-03-25T20:23:54;18.07;;;3.30;;
20772;SDS011;10546;50.674;4.616;2023-03-25T20:26:20;16.90;;;4.67;;
20772;SDS011;10546;50.674;4.616;2023-03-25T20:28:46;20.87;;;3.33;;
20772;SDS011;10546;50.674;4.616;2023-03-25T20:31:17;22.30;;;3.37;;
20772;SDS011;10546;50.674;4.616;2023-03-25T20:33:44;20.87;;;4.07;;
20772;SDS011;10546;50.674;4.616;2023-03-25T20:36:11;19.10;;;3.33;;
20772;SDS011;10546;50.674;4.616;2023-03-25T20:38:36;21.03;;;3.67;;
20772;SDS011;10546;50.674;4.616;2023-03-25T20:41:02;20.97;;;4.07;;
20772;SDS011;10546;50.674;4.616;2023-03-25T20:43:29;27.40;;;5.30;;
20772;SDS011;10546;50.674;4.616;2023-03-25T20:45:55;22.27;;;4.67;;
20772;SDS011;10546;50.674;4.616;2023-03-25T20:48:21;32.57;;;5.53;;
20772;SDS011;10546;50.674;4.616;2023-03-25T20:50:49;30.10;;;5.97;;
20772;SDS011;10546;50.674;4.616;2023-03-25T20:53:21;29.03;;;7.03;;
20772;SDS011;10546;50.674;4.616;2023-03-25T20:55:47;23.80;;;6.47;;
20772;SDS011;10546;50.674;4.616;2023-03-25T20:58:12;32.47;;;6.33;;
20772;SDS011;10546;50.674;4.616;2023-03-25T21:00:38;25.57;;;5.80;;
20772;SDS011;10546;50.674;4.616;2023-03-25T21:03:03;29.20;;;6.77;;
20772;SDS011;10546;50.674;4.616;2023-03-25T21:05:29;27.70;;;7.10;;
20772;SDS011;10546;50.674;4.616;2023-03-25T21:07:55;38.07;;;5.73;;
20772;SDS011;10546;50.674;4.616;2023-03-25T21:10:21;36.90;;;6.00;;
20772;SDS011;10546;50.674;4.616;2023-03-25T21:12:47;23.90;;;5.33;;
20772;SDS011;10546;50.674;4.616;2023-03-25T21:15:13;34.53;;;5.40;;
20772;SDS011;10546;50.674;4.616;2023-03-25T21:17:38;24.83;;;5.73;;
20772;SDS011;10546;50.674;4.616;2023-03-25T21:20:04;29.33;;;4.77;;
20772;SDS011;10546;50.674;4.616;2023-03-25T21:22:33;29.83;;;6.07;;
20772;SDS011;10546;50.674;4.616;2023-03-25T21:24:59;30.70;;;5.80;;
20772;SDS011;10546;50.674;4.616;2023-03-25T21:27:24;35.43;;;5.83;;
20772;SDS011;10546;50.674;4.616;2023-03-25T21:29:52;47.37;;;5.77;;
20772;SDS011;10546;50.674;4.616;2023-03-25T21:32:18;30.13;;;5.40;;
20772;SDS011;10546;50.674;4.616;2023-03-25T21:34:43;30.60;;;5.87;;
20772;SDS011;10546;50.674;4.616;2023-03-25T21:37:09;28.73;;;5.37;;
20772;SDS011;10546;50.674;4.616;2023-03-25T21:39:35;26.37;;;5.20;;
20772;SDS011;10546;50.674;4.616;2023-03-25T21:42:01;26.93;;;5.33;;
20772;SDS011;10546;50.674;4.616;2023-03-25T21:44:26;24.83;;;4.77;;
20772;SDS011;10546;50.674;4.616;2023-03-25T21:46:52;32.50;;;5.93;;
20772;SDS011;10546;50.674;4.616;2023-03-25T21:49:18;34.20;;;5.43;;
20772;SDS011;10546;50.674;4.616;2023-03-25T21:51:46;32.03;;;5.97;;
20772;SDS011;10546;50.674;4.616;2023-03-25T21:54:20;23.60;;;4.87;;
20772;SDS011;10546;50.674;4.616;2023-03-25T21:56:46;30.93;;;5.43;;
20772;SDS011;10546;50.674;4.616;2023-03-25T21:59:18;26.70;;;5.87;;
20772;SDS011;10546;50.674;4.616;2023-03-25T22:01:45;32.17;;;6.83;;
20772;SDS011;10546;50.674;4.616;2023-03-25T22:04:10;39.20;;;6.67;;
20772;SDS011;10546;50.674;4.616;2023-03-25T22:06:36;31.40;;;7.47;;
20772;SDS011;10546;50.674;4.616;2023-03-25T22:09:05;23.27;;;5.10;;
20772;SDS011;10546;50.674;4.616;2023-03-25T22:11:31;26.97;;;5.77;;
20772;SDS011;10546;50.674;4.616;2023-03-25T22:13:58;28.63;;;5.13;;
20772;SDS011;10546;50.674;4.616;2023-03-25T22:16:25;28.83;;;5.50;;
20772;SDS011;10546;50.674;4.616;2023-03-25T22:18:51;27.60;;;5.43;;
20772;SDS011;10546;50.674;4.616;2023-03-25T22:21:24;32.80;;;5.00;;
20772;SDS011;10546;50.674;4.616;2023-03-25T22:23:54;37.43;;;5.73;;
20772;SDS011;10546;50.674;4.616;2023-03-25T22:26:21;28.53;;;5.00;;
20772;SDS011;10546;50.674;4.616;2023-03-25T22:28:51;25.77;;;4.23;;
20772;SDS011;10546;50.674;4.616;2023-03-25T22:31:21;26.17;;;4.70;;
20772;SDS011;10546;50.674;4.616;2023-03-25T22:33:54;22.33;;;4.13;;
20772;SDS011;10546;50.674;4.616;2023-03-25T22:36:28;25.87;;;4.93;;
20772;SDS011;10546;50.674;4.616;2023-03-25T22:38:55;21.00;;;3.90;;
20772;SDS011;10546;50.674;4.616;2023-03-25T22:41:22;24.37;;;4.73;;
20772;SDS011;10546;50.674;4.616;2023-03-25T22:43:47;33.07;;;4.87;;
20772;SDS011;10546;50.674;4.616;2023-03-25T22:46:13;27.37;;;5.43;;
20772;SDS011;10546;50.674;4.616;2023-03-25T22:48:39;25.07;;;3.47;;
20772;SDS011;10546;50.674;4.616;2023-03-25T22:51:06;21.53;;;4.10;;
20772;SDS011;10546;50.674;4.616;2023-03-25T22:53:33;21.77;;;4.83;;
20772;SDS011;10546;50.674;4.616;2023-03-25T22:55:59;22.93;;;4.33;;
20772;SDS011;10546;50.674;4.616;2023-03-25T22:58:25;19.47;;;3.50;;
20772;SDS011;10546;50.674;4.616;2023-03-25T23:00:53;31.20;;;5.23;;
20772;SDS011;10546;50.674;4.616;2023-03-25T23:03:21;32.60;;;4.50;;
20772;SDS011;10546;50.674;4.616;2023-03-25T23:05:55;31.37;;;4.00;;
20772;SDS011;10546;50.674;4.616;2023-03-25T23:08:25;24.07;;;4.47;;
